sensor_id;sensor_type;location;lat;lon;timestamp;temperature;humidity
14119;DHT22;7138;49.246;9.100;2023-04-24T00:00:28;10.10;99.90
14119;DHT22;7138;49.246;9.100;2023-04-24T00:02:55;10.10;99.90
14119;DHT22;7138;49.246;9.100;2023-04-24T00:05:22;10.00;99.90
14119;DHT22;7138;49.246;9.100;2023-04-24T00:07:49;10.00;99.90
14119;DHT22;7138;49.246;9.100;2023-04-24T00:10:18;9.90;99.90
14119;DHT22;7138;49.246;9.100;2023-04-24T00:12:45;9.80;99.90
14119;DHT22;7138;49.246;9.100;2023-04-24T00:15:11;9.90;99.90
14119;DHT22;7138;49.246;9.100;2023-04-24T00:17:37;9.90;99.90
14119;DHT22;7138;49.246;9.100;2023-04-24T00:20:04;9.90;99.90
14119;DHT22;7138;49.246;9.100;2023-04-24T00:22:32;9.90;99.90
14119;DHT22;7138;49.246;9.100;2023-04-24T00:24:58;9.90;99.90
14119;DHT22;7138;49.246;9.100;2023-04-24T00:27:24;9.90;99.90
14119;DHT22;7138;49.246;9.100;2023-04-24T00:29:51;10.00;99.90
14119;DHT22;7138;49.246;9.100;2023-04-24T00:32:20;10.00;99.90
14119;DHT22;7138;49.246;9.100;2023-04-24T00:34:46;10.00;99.90
14119;DHT22;7138;49.246;9.100;2023-04-24T00:37:12;10.00;99.90
14119;DHT22;7138;49.246;9.100;2023-04-24T00:39:38;10.00;99.90
14119;DHT22;7138;49.246;9.100;2023-04-24T00:42:04;9.90;99.90
14119;DHT22;7138;49.246;9.100;2023-04-24T00:44:32;9.90;99.90
14119;DHT22;7138;49.246;9.100;2023-04-24T00:46:59;9.90;99.90
14119;DHT22;7138;49.246;9.100;2023-04-24T00:49:26;9.90;99.90
14119;DHT22;7138;49.246;9.100;2023-04-24T00:51:52;10.00;99.90
14119;DHT22;7138;49.246;9.100;2023-04-24T00:54:19;10.00;99.90
14119;DHT22;7138;49.246;9.100;2023-04-24T00:56:46;10.00;99.90
14119;DHT22;7138;49.246;9.100;2023-04-24T00:59:12;10.00;99.90
14119;DHT22;7138;49.246;9.100;2023-04-24T01:01:39;10.00;99.90
14119;DHT22;7138;49.246;9.100;2023-04-24T01:04:11;10.10;99.90
14119;DHT22;7138;49.246;9.100;2023-04-24T01:06:39;10.10;99.90
14119;DHT22;7138;49.246;9.100;2023-04-24T01:09:06;10.10;99.90
14119;DHT22;7138;49.246;9.100;2023-04-24T01:11:36;10.00;99.90
14119;DHT22;7138;49.246;9.100;2023-04-24T01:14:02;10.10;99.90
14119;DHT22;7138;49.246;9.100;2023-04-24T01:16:29;10.10;99.90
14119;DHT22;7138;49.246;9.100;2023-04-24T01:18:55;10.10;99.90
14119;DHT22;7138;49.246;9.100;2023-04-24T01:21:23;10.10;99.90
14119;DHT22;7138;49.246;9.100;2023-04-24T01:23:56;10.10;99.90
14119;DHT22;7138;49.246;9.100;2023-04-24T01:26:22;10.10;99.90
14119;DHT22;7138;49.246;9.100;2023-04-24T01:28:50;10.00;99.90
14119;DHT22;7138;49.246;9.100;2023-04-24T01:31:17;10.00;99.90
14119;DHT22;7138;49.246;9.100;2023-04-24T01:33:43;10.00;99.90
14119;DHT22;7138;49.246;9.100;2023-04-24T01:36:11;10.00;99.90
14119;DHT22;7138;49.246;9.100;2023-04-24T01:38:37;10.00;99.90
14119;DHT22;7138;49.246;9.100;2023-04-24T01:41:04;10.00;99.90
14119;DHT22;7138;49.246;9.100;2023-04-24T01:43:31;10.00;99.90
14119;DHT22;7138;49.246;9.100;2023-04-24T01:45:57;10.00;99.90
14119;DHT22;7138;49.246;9.100;2023-04-24T01:48:23;10.00;99.90
14119;DHT22;7138;49.246;9.100;2023-04-24T01:50:49;10.00;99.90
14119;DHT22;7138;49.246;9.100;2023-04-24T01:53:15;10.00;99.90
14119;DHT22;7138;49.246;9.100;2023-04-24T01:55:41;10.10;99.90
14119;DHT22;7138;49.246;9.100;2023-04-24T01:58:08;10.10;99.90
14119;DHT22;7138;49.246;9.100;2023-04-24T02:00:34;10.20;99.90
14119;DHT22;7138;49.246;9.100;2023-04-24T02:03:00;10.10;99.90
14119;DHT22;7138;49.246;9.100;2023-04-24T02:05:27;10.10;99.90
14119;DHT22;7138;49.246;9.100;2023-04-24T02:07:53;10.00;99.90
14119;DHT22;7138;49.246;9.100;2023-04-24T02:10:19;10.00;99.90
14119;DHT22;7138;49.246;9.100;2023-04-24T02:12:45;9.90;99.90
14119;DHT22;7138;49.246;9.100;2023-04-24T02:15:12;10.00;99.90
14119;DHT22;7138;49.246;9.100;2023-04-24T02:17:38;9.90;99.90
14119;DHT22;7138;49.246;9.100;2023-04-24T02:20:05;9.90;99.90
14119;DHT22;7138;49.246;9.100;2023-04-24T02:22:32;9.90;99.90
14119;DHT22;7138;49.246;9.100;2023-04-24T02:24:57;10.00;99.90
14119;DHT22;7138;49.246;9.100;2023-04-24T02:27:23;10.00;99.90
14119;DHT22;7138;49.246;9.100;2023-04-24T02:29:50;9.90;99.90
14119;DHT22;7138;49.246;9.100;2023-04-24T02:32:19;10.00;99.90
14119;DHT22;7138;49.246;9.100;2023-04-24T02:34:45;10.00;99.90
14119;DHT22;7138;49.246;9.100;2023-04-24T02:37:11;10.00;99.90
14119;DHT22;7138;49.246;9.100;2023-04-24T02:39:37;10.00;99.90
14119;DHT22;7138;49.246;9.100;2023-04-24T02:42:03;9.90;99.90
14119;DHT22;7138;49.246;9.100;2023-04-24T02:44:29;9.80;99.90
14119;DHT22;7138;49.246;9.100;2023-04-24T02:46:54;9.80;99.90
14119;DHT22;7138;49.246;9.100;2023-04-24T02:49:22;9.70;99.90
14119;DHT22;7138;49.246;9.100;2023-04-24T02:51:47;9.70;99.90
14119;DHT22;7138;49.246;9.100;2023-04-24T02:54:13;9.70;99.90
14119;DHT22;7138;49.246;9.100;2023-04-24T02:56:39;9.70;99.90
14119;DHT22;7138;49.246;9.100;2023-04-24T02:59:05;9.80;99.90
14119;DHT22;7138;49.246;9.100;2023-04-24T03:01:31;9.70;99.90
14119;DHT22;7138;49.246;9.100;2023-04-24T03:03:56;9.80;99.90
14119;DHT22;7138;49.246;9.100;2023-04-24T03:06:24;9.80;99.90
14119;DHT22;7138;49.246;9.100;2023-04-24T03:08:52;9.80;99.90
14119;DHT22;7138;49.246;9.100;2023-04-24T03:11:18;9.90;99.90
14119;DHT22;7138;49.246;9.100;2023-04-24T03:13:44;9.90;99.90
14119;DHT22;7138;49.246;9.100;2023-04-24T03:16:10;9.80;99.90
14119;DHT22;7138;49.246;9.100;2023-04-24T03:18:36;9.80;99.90
14119;DHT22;7138;49.246;9.100;2023-04-24T03:21:02;9.80;99.90
14119;DHT22;7138;49.246;9.100;2023-04-24T03:23:30;9.80;99.90
14119;DHT22;7138;49.246;9.100;2023-04-24T03:25:56;9.70;99.90
14119;DHT22;7138;49.246;9.100;2023-04-24T03:28:22;9.70;99.90
14119;DHT22;7138;49.246;9.100;2023-04-24T03:30:47;9.70;99.90
14119;DHT22;7138;49.246;9.100;2023-04-24T03:33:13;9.80;99.90
14119;DHT22;7138;49.246;9.100;2023-04-24T03:35:39;9.90;99.90
14119;DHT22;7138;49.246;9.100;2023-04-24T03:38:05;10.00;99.90
14119;DHT22;7138;49.246;9.100;2023-04-24T03:40:32;10.00;99.90
14119;DHT22;7138;49.246;9.100;2023-04-24T03:42:59;10.00;99.90
14119;DHT22;7138;49.246;9.100;2023-04-24T03:45:25;10.00;99.90
14119;DHT22;7138;49.246;9.100;2023-04-24T03:47:51;9.90;99.90
14119;DHT22;7138;49.246;9.100;2023-04-24T03:50:16;10.00;99.90
14119;DHT22;7138;49.246;9.100;2023-04-24T03:52:42;10.00;99.90
14119;DHT22;7138;49.246;9.100;2023-04-24T03:55:08;9.90;99.90
14119;DHT22;7138;49.246;9.100;2023-04-24T03:57:40;9.90;99.90
14119;DHT22;7138;49.246;9.100;2023-04-24T04:00:07;9.80;99.90
14119;DHT22;7138;49.246;9.100;2023-04-24T04:02:34;9.80;99.90
14119;DHT22;7138;49.246;9.100;2023-04-24T04:05:00;9.70;99.90
14119;DHT22;7138;49.246;9.100;2023-04-24T04:07:26;9.70;99.90
14119;DHT22;7138;49.246;9.100;2023-04-24T04:09:51;9.70;99.90
14119;DHT22;7138;49.246;9.100;2023-04-24T04:12:18;9.50;99.90
14119;DHT22;7138;49.246;9.100;2023-04-24T04:14:45;9.40;99.90
14119;DHT22;7138;49.246;9.100;2023-04-24T04:17:10;9.30;99.90
14119;DHT22;7138;49.246;9.100;2023-04-24T04:19:36;9.20;99.90
14119;DHT22;7138;49.246;9.100;2023-04-24T04:22:02;9.10;99.90
14119;DHT22;7138;49.246;9.100;2023-04-24T04:24:28;9.00;99.90
14119;DHT22;7138;49.246;9.100;2023-04-24T04:26:54;8.90;99.90
14119;DHT22;7138;49.246;9.100;2023-04-24T04:29:22;8.90;99.90
14119;DHT22;7138;49.246;9.100;2023-04-24T04:31:50;8.80;99.90
14119;DHT22;7138;49.246;9.100;2023-04-24T04:34:16;8.80;99.90
14119;DHT22;7138;49.246;9.100;2023-04-24T04:36:42;8.80;99.90
14119;DHT22;7138;49.246;9.100;2023-04-24T04:39:09;8.70;99.90
14119;DHT22;7138;49.246;9.100;2023-04-24T04:41:34;8.70;99.90
14119;DHT22;7138;49.246;9.100;2023-04-24T04:44:00;8.60;99.90
14119;DHT22;7138;49.246;9.100;2023-04-24T04:46:27;8.60;99.90
14119;DHT22;7138;49.246;9.100;2023-04-24T04:48:54;8.50;99.90
14119;DHT22;7138;49.246;9.100;2023-04-24T04:51:20;8.50;99.90
14119;DHT22;7138;49.246;9.100;2023-04-24T04:53:46;8.40;99.90
14119;DHT22;7138;49.246;9.100;2023-04-24T04:56:12;8.40;99.90
14119;DHT22;7138;49.246;9.100;2023-04-24T04:58:37;8.40;99.90
14119;DHT22;7138;49.246;9.100;2023-04-24T05:01:03;8.30;99.90
14119;DHT22;7138;49.246;9.100;2023-04-24T05:03:30;8.30;99.90
14119;DHT22;7138;49.246;9.100;2023-04-24T05:05:57;8.30;99.90
14119;DHT22;7138;49.246;9.100;2023-04-24T05:08:23;8.40;99.90
14119;DHT22;7138;49.246;9.100;2023-04-24T05:10:49;8.30;99.90
14119;DHT22;7138;49.246;9.100;2023-04-24T05:13:15;8.30;99.90
14119;DHT22;7138;49.246;9.100;2023-04-24T05:15:40;8.30;99.90
14119;DHT22;7138;49.246;9.100;2023-04-24T05:18:06;8.20;99.90
14119;DHT22;7138;49.246;9.100;2023-04-24T05:20:32;8.20;99.90
14119;DHT22;7138;49.246;9.100;2023-04-24T05:22:59;8.30;99.90
14119;DHT22;7138;49.246;9.100;2023-04-24T05:25:25;8.40;99.90
14119;DHT22;7138;49.246;9.100;2023-04-24T05:27:51;8.30;99.90
14119;DHT22;7138;49.246;9.100;2023-04-24T05:30:18;9.50;99.90
14119;DHT22;7138;49.246;9.100;2023-04-24T05:32:45;10.70;99.90
14119;DHT22;7138;49.246;9.100;2023-04-24T05:35:11;11.30;99.90
14119;DHT22;7138;49.246;9.100;2023-04-24T05:37:37;11.80;99.90
14119;DHT22;7138;49.246;9.100;2023-04-24T05:40:05;12.30;99.90
14119;DHT22;7138;49.246;9.100;2023-04-24T05:42:32;12.80;99.90
14119;DHT22;7138;49.246;9.100;2023-04-24T05:44:58;13.60;99.90
14119;DHT22;7138;49.246;9.100;2023-04-24T05:47:23;14.10;99.90
14119;DHT22;7138;49.246;9.100;2023-04-24T05:49:49;13.30;99.90
14119;DHT22;7138;49.246;9.100;2023-04-24T05:52:15;13.70;99.90
14119;DHT22;7138;49.246;9.100;2023-04-24T05:54:41;14.20;99.90
14119;DHT22;7138;49.246;9.100;2023-04-24T05:57:08;14.60;99.90
14119;DHT22;7138;49.246;9.100;2023-04-24T05:59:35;14.60;99.90
14119;DHT22;7138;49.246;9.100;2023-04-24T06:02:02;14.00;99.90
14119;DHT22;7138;49.246;9.100;2023-04-24T06:04:27;14.30;99.90
14119;DHT22;7138;49.246;9.100;2023-04-24T06:06:53;13.50;99.90
14119;DHT22;7138;49.246;9.100;2023-04-24T06:09:21;13.50;99.90
14119;DHT22;7138;49.246;9.100;2023-04-24T06:11:47;13.50;99.90
14119;DHT22;7138;49.246;9.100;2023-04-24T06:14:16;14.00;99.90
14119;DHT22;7138;49.246;9.100;2023-04-24T06:16:42;14.00;99.90
14119;DHT22;7138;49.246;9.100;2023-04-24T06:19:08;14.30;99.90
14119;DHT22;7138;49.246;9.100;2023-04-24T06:21:34;14.30;99.90
14119;DHT22;7138;49.246;9.100;2023-04-24T06:24:00;14.20;99.90
14119;DHT22;7138;49.246;9.100;2023-04-24T06:26:26;14.10;99.90
14119;DHT22;7138;49.246;9.100;2023-04-24T06:28:52;13.60;99.90
14119;DHT22;7138;49.246;9.100;2023-04-24T06:31:20;13.20;99.90
14119;DHT22;7138;49.246;9.100;2023-04-24T06:33:47;13.10;99.90
14119;DHT22;7138;49.246;9.100;2023-04-24T06:36:13;12.10;99.90
14119;DHT22;7138;49.246;9.100;2023-04-24T06:38:39;11.30;99.90
14119;DHT22;7138;49.246;9.100;2023-04-24T06:41:05;10.80;99.90
14119;DHT22;7138;49.246;9.100;2023-04-24T06:43:31;11.00;99.90
14119;DHT22;7138;49.246;9.100;2023-04-24T06:45:57;11.20;99.90
14119;DHT22;7138;49.246;9.100;2023-04-24T06:48:25;11.20;99.90
14119;DHT22;7138;49.246;9.100;2023-04-24T06:50:51;11.90;99.90
14119;DHT22;7138;49.246;9.100;2023-04-24T06:53:17;11.60;99.90
14119;DHT22;7138;49.246;9.100;2023-04-24T06:55:43;11.60;99.90
14119;DHT22;7138;49.246;9.100;2023-04-24T06:58:11;11.30;99.90
14119;DHT22;7138;49.246;9.100;2023-04-24T07:00:37;11.00;99.90
14119;DHT22;7138;49.246;9.100;2023-04-24T07:03:03;10.80;99.90
14119;DHT22;7138;49.246;9.100;2023-04-24T07:05:34;10.80;99.90
14119;DHT22;7138;49.246;9.100;2023-04-24T07:08:00;10.50;99.90
14119;DHT22;7138;49.246;9.100;2023-04-24T07:10:27;10.50;99.90
14119;DHT22;7138;49.246;9.100;2023-04-24T07:12:54;10.80;99.90
14119;DHT22;7138;49.246;9.100;2023-04-24T07:15:20;10.70;99.90
14119;DHT22;7138;49.246;9.100;2023-04-24T07:17:46;11.40;99.90
14119;DHT22;7138;49.246;9.100;2023-04-24T07:20:12;11.20;99.90
14119;DHT22;7138;49.246;9.100;2023-04-24T07:22:41;11.90;99.90
14119;DHT22;7138;49.246;9.100;2023-04-24T07:25:08;11.80;99.90
14119;DHT22;7138;49.246;9.100;2023-04-24T07:27:34;11.50;99.90
14119;DHT22;7138;49.246;9.100;2023-04-24T07:30:01;11.20;99.90
14119;DHT22;7138;49.246;9.100;2023-04-24T07:32:27;11.20;99.90
14119;DHT22;7138;49.246;9.100;2023-04-24T07:34:53;11.10;99.90
14119;DHT22;7138;49.246;9.100;2023-04-24T07:37:22;11.10;99.90
14119;DHT22;7138;49.246;9.100;2023-04-24T07:39:50;11.50;99.90
14119;DHT22;7138;49.246;9.100;2023-04-24T07:42:16;11.40;99.90
14119;DHT22;7138;49.246;9.100;2023-04-24T07:44:41;11.40;99.90
14119;DHT22;7138;49.246;9.100;2023-04-24T07:47:08;11.30;99.90
14119;DHT22;7138;49.246;9.100;2023-04-24T07:49:34;10.90;99.90
14119;DHT22;7138;49.246;9.100;2023-04-24T07:52:00;11.10;99.90
14119;DHT22;7138;49.246;9.100;2023-04-24T07:54:27;11.30;99.90
14119;DHT22;7138;49.246;9.100;2023-04-24T07:56:55;10.80;99.90
14119;DHT22;7138;49.246;9.100;2023-04-24T07:59:21;10.90;99.90
14119;DHT22;7138;49.246;9.100;2023-04-24T08:01:47;10.90;99.90
14119;DHT22;7138;49.246;9.100;2023-04-24T08:04:12;10.80;99.90
14119;DHT22;7138;49.246;9.100;2023-04-24T08:06:38;10.70;99.90
14119;DHT22;7138;49.246;9.100;2023-04-24T08:09:04;10.60;99.90
14119;DHT22;7138;49.246;9.100;2023-04-24T08:11:30;10.70;99.90
14119;DHT22;7138;49.246;9.100;2023-04-24T08:13:58;10.60;99.90
14119;DHT22;7138;49.246;9.100;2023-04-24T08:16:24;10.30;99.90
14119;DHT22;7138;49.246;9.100;2023-04-24T08:18:50;9.90;99.90
14119;DHT22;7138;49.246;9.100;2023-04-24T08:21:16;9.70;99.90
14119;DHT22;7138;49.246;9.100;2023-04-24T08:23:46;9.60;99.90
14119;DHT22;7138;49.246;9.100;2023-04-24T08:26:12;9.50;99.90
14119;DHT22;7138;49.246;9.100;2023-04-24T08:28:38;9.60;99.90
14119;DHT22;7138;49.246;9.100;2023-04-24T08:31:05;9.60;99.90
14119;DHT22;7138;49.246;9.100;2023-04-24T08:33:31;9.80;99.90
14119;DHT22;7138;49.246;9.100;2023-04-24T08:35:59;9.70;99.90
14119;DHT22;7138;49.246;9.100;2023-04-24T08:38:26;9.50;99.90
14119;DHT22;7138;49.246;9.100;2023-04-24T08:40:52;9.50;99.90
14119;DHT22;7138;49.246;9.100;2023-04-24T08:43:18;9.60;99.90
14119;DHT22;7138;49.246;9.100;2023-04-24T08:45:47;9.90;99.90
14119;DHT22;7138;49.246;9.100;2023-04-24T08:48:14;10.30;99.90
14119;DHT22;7138;49.246;9.100;2023-04-24T08:50:42;11.10;99.90
14119;DHT22;7138;49.246;9.100;2023-04-24T08:53:10;11.60;99.90
14119;DHT22;7138;49.246;9.100;2023-04-24T08:55:37;11.90;99.90
14119;DHT22;7138;49.246;9.100;2023-04-24T08:58:04;12.60;99.90
14119;DHT22;7138;49.246;9.100;2023-04-24T09:00:30;12.40;99.90
14119;DHT22;7138;49.246;9.100;2023-04-24T09:02:57;13.10;99.90
14119;DHT22;7138;49.246;9.100;2023-04-24T09:05:25;12.70;99.90
14119;DHT22;7138;49.246;9.100;2023-04-24T09:07:54;12.00;99.90
14119;DHT22;7138;49.246;9.100;2023-04-24T09:10:21;12.00;99.90
14119;DHT22;7138;49.246;9.100;2023-04-24T09:12:50;11.70;99.90
14119;DHT22;7138;49.246;9.100;2023-04-24T09:15:17;11.70;99.90
14119;DHT22;7138;49.246;9.100;2023-04-24T09:17:44;12.10;99.90
14119;DHT22;7138;49.246;9.100;2023-04-24T09:20:10;12.30;99.90
14119;DHT22;7138;49.246;9.100;2023-04-24T09:22:37;12.00;99.90
14119;DHT22;7138;49.246;9.100;2023-04-24T09:25:05;11.80;99.90
14119;DHT22;7138;49.246;9.100;2023-04-24T09:27:33;11.30;99.90
14119;DHT22;7138;49.246;9.100;2023-04-24T09:30:00;10.90;99.90
14119;DHT22;7138;49.246;9.100;2023-04-24T09:32:27;10.70;99.90
14119;DHT22;7138;49.246;9.100;2023-04-24T09:35:09;10.60;99.90
14119;DHT22;7138;49.246;9.100;2023-04-24T09:37:39;11.10;99.90
14119;DHT22;7138;49.246;9.100;2023-04-24T09:40:15;11.30;99.90
14119;DHT22;7138;49.246;9.100;2023-04-24T09:42:45;11.90;99.90
14119;DHT22;7138;49.246;9.100;2023-04-24T09:45:12;12.20;99.90
14119;DHT22;7138;49.246;9.100;2023-04-24T09:47:38;12.90;99.90
14119;DHT22;7138;49.246;9.100;2023-04-24T09:50:13;13.30;99.90
14119;DHT22;7138;49.246;9.100;2023-04-24T09:52:42;13.00;99.90
14119;DHT22;7138;49.246;9.100;2023-04-24T09:55:16;12.30;99.90
14119;DHT22;7138;49.246;9.100;2023-04-24T09:57:51;12.00;99.90
14119;DHT22;7138;49.246;9.100;2023-04-24T10:00:20;11.30;99.90
14119;DHT22;7138;49.246;9.100;2023-04-24T10:02:51;11.10;99.90
14119;DHT22;7138;49.246;9.100;2023-04-24T10:05:23;11.00;99.90
14119;DHT22;7138;49.246;9.100;2023-04-24T10:07:52;11.00;99.90
14119;DHT22;7138;49.246;9.100;2023-04-24T10:10:22;11.00;99.90
14119;DHT22;7138;49.246;9.100;2023-04-24T10:12:49;10.90;99.90
14119;DHT22;7138;49.246;9.100;2023-04-24T10:15:16;11.70;99.90
14119;DHT22;7138;49.246;9.100;2023-04-24T10:17:46;11.70;99.90
14119;DHT22;7138;49.246;9.100;2023-04-24T10:20:18;11.20;99.90
14119;DHT22;7138;49.246;9.100;2023-04-24T10:22:48;10.60;99.90
14119;DHT22;7138;49.246;9.100;2023-04-24T10:25:18;10.40;99.90
14119;DHT22;7138;49.246;9.100;2023-04-24T10:27:46;10.40;99.90
14119;DHT22;7138;49.246;9.100;2023-04-24T10:30:13;10.60;99.90
14119;DHT22;7138;49.246;9.100;2023-04-24T10:32:40;10.80;99.90
14119;DHT22;7138;49.246;9.100;2023-04-24T10:35:07;11.40;99.90
14119;DHT22;7138;49.246;9.100;2023-04-24T10:37:36;12.40;99.90
14119;DHT22;7138;49.246;9.100;2023-04-24T10:40:06;12.90;99.90
14119;DHT22;7138;49.246;9.100;2023-04-24T10:42:33;13.40;99.90
14119;DHT22;7138;49.246;9.100;2023-04-24T10:45:05;13.70;99.90
14119;DHT22;7138;49.246;9.100;2023-04-24T10:47:39;13.60;99.90
14119;DHT22;7138;49.246;9.100;2023-04-24T10:50:08;13.40;99.90
14119;DHT22;7138;49.246;9.100;2023-04-24T10:52:44;12.60;99.90
14119;DHT22;7138;49.246;9.100;2023-04-24T10:55:13;12.30;99.90
14119;DHT22;7138;49.246;9.100;2023-04-24T10:58:01;12.50;99.90
14119;DHT22;7138;49.246;9.100;2023-04-24T11:00:29;12.50;99.90
14119;DHT22;7138;49.246;9.100;2023-04-24T11:02:55;12.50;99.90
14119;DHT22;7138;49.246;9.100;2023-04-24T11:05:23;12.20;99.90
14119;DHT22;7138;49.246;9.100;2023-04-24T11:08:16;12.20;99.90
14119;DHT22;7138;49.246;9.100;2023-04-24T11:10:56;11.30;99.90
14119;DHT22;7138;49.246;9.100;2023-04-24T11:13:27;11.00;99.90
14119;DHT22;7138;49.246;9.100;2023-04-24T11:16:14;10.70;99.90
14119;DHT22;7138;49.246;9.100;2023-04-24T11:18:42;10.50;99.90
14119;DHT22;7138;49.246;9.100;2023-04-24T11:21:17;10.00;99.90
14119;DHT22;7138;49.246;9.100;2023-04-24T11:23:43;9.90;99.90
14119;DHT22;7138;49.246;9.100;2023-04-24T11:26:12;9.90;99.90
14119;DHT22;7138;49.246;9.100;2023-04-24T11:28:49;10.00;99.90
14119;DHT22;7138;49.246;9.100;2023-04-24T11:31:40;10.60;99.90
14119;DHT22;7138;49.246;9.100;2023-04-24T11:34:09;11.50;99.90
14119;DHT22;7138;49.246;9.100;2023-04-24T11:36:36;12.00;99.90
14119;DHT22;7138;49.246;9.100;2023-04-24T11:39:02;12.70;99.90
14119;DHT22;7138;49.246;9.100;2023-04-24T11:41:31;12.50;99.90
14119;DHT22;7138;49.246;9.100;2023-04-24T11:43:59;12.90;99.90
14119;DHT22;7138;49.246;9.100;2023-04-24T11:46:29;12.30;99.90
14119;DHT22;7138;49.246;9.100;2023-04-24T11:48:57;12.20;99.90
14119;DHT22;7138;49.246;9.100;2023-04-24T11:51:24;12.40;99.90
14119;DHT22;7138;49.246;9.100;2023-04-24T11:53:51;12.80;99.90
14119;DHT22;7138;49.246;9.100;2023-04-24T11:56:17;13.00;99.90
14119;DHT22;7138;49.246;9.100;2023-04-24T11:58:46;13.20;99.90
14119;DHT22;7138;49.246;9.100;2023-04-24T12:01:13;13.40;99.90
14119;DHT22;7138;49.246;9.100;2023-04-24T12:03:39;12.90;99.90
14119;DHT22;7138;49.246;9.100;2023-04-24T12:06:09;12.90;99.90
14119;DHT22;7138;49.246;9.100;2023-04-24T12:08:37;12.50;99.90
14119;DHT22;7138;49.246;9.100;2023-04-24T12:11:05;12.20;99.90
14119;DHT22;7138;49.246;9.100;2023-04-24T12:13:33;12.00;99.90
14119;DHT22;7138;49.246;9.100;2023-04-24T12:16:02;11.70;99.90
14119;DHT22;7138;49.246;9.100;2023-04-24T12:18:29;11.40;99.90
14119;DHT22;7138;49.246;9.100;2023-04-24T12:20:55;11.30;99.90
14119;DHT22;7138;49.246;9.100;2023-04-24T12:23:43;11.40;99.90
14119;DHT22;7138;49.246;9.100;2023-04-24T12:26:09;11.50;99.90
14119;DHT22;7138;49.246;9.100;2023-04-24T12:28:36;11.60;99.90
14119;DHT22;7138;49.246;9.100;2023-04-24T12:31:06;12.30;99.90
14119;DHT22;7138;49.246;9.100;2023-04-24T12:33:33;12.40;99.90
14119;DHT22;7138;49.246;9.100;2023-04-24T12:36:00;12.70;99.90
14119;DHT22;7138;49.246;9.100;2023-04-24T12:38:28;12.40;99.90
14119;DHT22;7138;49.246;9.100;2023-04-24T12:41:02;12.20;99.90
14119;DHT22;7138;49.246;9.100;2023-04-24T12:43:29;12.20;99.90
14119;DHT22;7138;49.246;9.100;2023-04-24T12:45:55;12.20;99.90
14119;DHT22;7138;49.246;9.100;2023-04-24T12:48:23;12.00;99.90
14119;DHT22;7138;49.246;9.100;2023-04-24T12:50:49;12.30;99.90
14119;DHT22;7138;49.246;9.100;2023-04-24T12:53:15;12.40;99.90
14119;DHT22;7138;49.246;9.100;2023-04-24T12:55:41;12.80;99.90
14119;DHT22;7138;49.246;9.100;2023-04-24T12:58:07;13.00;99.90
14119;DHT22;7138;49.246;9.100;2023-04-24T13:00:33;13.60;99.90
14119;DHT22;7138;49.246;9.100;2023-04-24T13:02:59;13.40;99.90
14119;DHT22;7138;49.246;9.100;2023-04-24T13:05:27;13.10;99.90
14119;DHT22;7138;49.246;9.100;2023-04-24T13:07:53;12.70;99.90
14119;DHT22;7138;49.246;9.100;2023-04-24T13:10:19;12.10;99.90
14119;DHT22;7138;49.246;9.100;2023-04-24T13:12:45;12.10;99.90
14119;DHT22;7138;49.246;9.100;2023-04-24T13:15:11;12.30;99.90
14119;DHT22;7138;49.246;9.100;2023-04-24T13:17:37;12.10;99.90
14119;DHT22;7138;49.246;9.100;2023-04-24T13:20:05;12.10;99.90
14119;DHT22;7138;49.246;9.100;2023-04-24T13:22:33;12.00;99.90
14119;DHT22;7138;49.246;9.100;2023-04-24T13:24:58;12.00;99.90
14119;DHT22;7138;49.246;9.100;2023-04-24T13:27:25;11.90;99.90
14119;DHT22;7138;49.246;9.100;2023-04-24T13:29:50;11.80;99.90
14119;DHT22;7138;49.246;9.100;2023-04-24T13:32:17;11.90;99.90
14119;DHT22;7138;49.246;9.100;2023-04-24T13:34:43;12.50;99.90
14119;DHT22;7138;49.246;9.100;2023-04-24T13:37:09;13.10;99.90
14119;DHT22;7138;49.246;9.100;2023-04-24T13:39:36;13.30;99.90
14119;DHT22;7138;49.246;9.100;2023-04-24T13:42:02;13.50;99.90
14119;DHT22;7138;49.246;9.100;2023-04-24T13:44:28;13.90;99.90
14119;DHT22;7138;49.246;9.100;2023-04-24T13:46:55;13.60;99.90
14119;DHT22;7138;49.246;9.100;2023-04-24T13:49:22;13.70;99.90
14119;DHT22;7138;49.246;9.100;2023-04-24T13:51:53;13.60;99.90
14119;DHT22;7138;49.246;9.100;2023-04-24T13:54:20;13.40;99.90
14119;DHT22;7138;49.246;9.100;2023-04-24T13:56:48;13.70;99.90
14119;DHT22;7138;49.246;9.100;2023-04-24T13:59:15;13.50;99.90
14119;DHT22;7138;49.246;9.100;2023-04-24T14:01:40;13.20;99.90
14119;DHT22;7138;49.246;9.100;2023-04-24T14:04:06;13.00;99.90
14119;DHT22;7138;49.246;9.100;2023-04-24T14:06:32;13.20;99.90
14119;DHT22;7138;49.246;9.100;2023-04-24T14:08:58;13.10;99.90
14119;DHT22;7138;49.246;9.100;2023-04-24T14:11:24;13.70;99.90
14119;DHT22;7138;49.246;9.100;2023-04-24T14:13:53;13.90;99.90
14119;DHT22;7138;49.246;9.100;2023-04-24T14:16:21;13.70;99.90
14119;DHT22;7138;49.246;9.100;2023-04-24T14:18:47;13.50;99.90
14119;DHT22;7138;49.246;9.100;2023-04-24T14:21:13;13.40;99.90
14119;DHT22;7138;49.246;9.100;2023-04-24T14:23:39;13.70;99.90
14119;DHT22;7138;49.246;9.100;2023-04-24T14:26:05;14.00;99.90
14119;DHT22;7138;49.246;9.100;2023-04-24T14:28:31;13.50;99.90
14119;DHT22;7138;49.246;9.100;2023-04-24T14:30:59;13.50;99.90
14119;DHT22;7138;49.246;9.100;2023-04-24T14:33:25;13.30;99.90
14119;DHT22;7138;49.246;9.100;2023-04-24T14:35:51;13.00;99.90
14119;DHT22;7138;49.246;9.100;2023-04-24T14:38:17;12.60;99.90
14119;DHT22;7138;49.246;9.100;2023-04-24T14:40:42;12.30;99.90
14119;DHT22;7138;49.246;9.100;2023-04-24T14:43:08;12.30;99.90
14119;DHT22;7138;49.246;9.100;2023-04-24T14:45:34;12.40;99.90
14119;DHT22;7138;49.246;9.100;2023-04-24T14:48:03;12.50;99.90
14119;DHT22;7138;49.246;9.100;2023-04-24T14:50:29;12.40;99.90
14119;DHT22;7138;49.246;9.100;2023-04-24T14:52:55;12.40;99.90
14119;DHT22;7138;49.246;9.100;2023-04-24T14:55:23;12.30;99.90
14119;DHT22;7138;49.246;9.100;2023-04-24T14:57:48;12.20;99.90
14119;DHT22;7138;49.246;9.100;2023-04-24T15:00:15;12.30;99.90
14119;DHT22;7138;49.246;9.100;2023-04-24T15:02:42;12.30;99.90
14119;DHT22;7138;49.246;9.100;2023-04-24T15:05:11;12.30;99.90
14119;DHT22;7138;49.246;9.100;2023-04-24T15:07:37;12.20;99.90
14119;DHT22;7138;49.246;9.100;2023-04-24T15:10:04;12.40;99.90
14119;DHT22;7138;49.246;9.100;2023-04-24T15:12:30;12.40;99.90
14119;DHT22;7138;49.246;9.100;2023-04-24T15:14:57;12.30;99.90
14119;DHT22;7138;49.246;9.100;2023-04-24T15:17:24;12.20;99.90
14119;DHT22;7138;49.246;9.100;2023-04-24T15:19:50;12.20;99.90
14119;DHT22;7138;49.246;9.100;2023-04-24T15:22:17;12.20;99.90
14119;DHT22;7138;49.246;9.100;2023-04-24T15:24:43;12.20;99.90
14119;DHT22;7138;49.246;9.100;2023-04-24T15:27:09;12.10;99.90
14119;DHT22;7138;49.246;9.100;2023-04-24T15:29:36;11.90;99.90
14119;DHT22;7138;49.246;9.100;2023-04-24T15:32:02;11.90;99.90
14119;DHT22;7138;49.246;9.100;2023-04-24T15:34:28;11.70;99.90
14119;DHT22;7138;49.246;9.100;2023-04-24T15:36:54;11.70;99.90
14119;DHT22;7138;49.246;9.100;2023-04-24T15:39:22;11.60;99.90
14119;DHT22;7138;49.246;9.100;2023-04-24T15:41:52;11.60;99.90
14119;DHT22;7138;49.246;9.100;2023-04-24T15:44:18;11.60;99.90
14119;DHT22;7138;49.246;9.100;2023-04-24T15:46:45;11.60;99.90
14119;DHT22;7138;49.246;9.100;2023-04-24T15:49:11;11.70;99.90